Time;durP1;ratioP1;P1;durP2;ratioP2;P2;SDS_P1;SDS_P2;PMS_P1;PMS_P2;Temp;Humidity;BMP_temperature;BMP_pressure;BME280_temperature;BME280_humidity;BME280_pressure;Samples;Min_cycle;Max_cycle;Signal;HPM_P1;HPM_P2
2022/10/02 00:02:01;;;;;;;19.02;5.00;;;;;;;;;;5053418;28;20032;-60
2022/10/02 00:04:47;;;;;;;39.80;6.43;;;;;;;;;;5054696;28;20033;-61
2022/10/02 00:07:15;;;;;;;26.45;5.03;;;;;;;;;;5031866;28;20068;-61
2022/10/02 00:09:43;;;;;;;25.98;5.40;;;;;;;;;;5038344;28;20417;-60
2022/10/02 00:12:11;;;;;;;32.85;5.55;;;;;;;;;;5034744;28;20040;-61
2022/10/02 00:14:38;;;;;;;24.85;5.65;;;;;;;;;;5036968;28;20029;-61
2022/10/02 00:17:05;;;;;;;29.77;5.72;;;;;;;;;;5054469;28;20051;-61
2022/10/02 00:19:32;;;;;;;24.25;5.00;;;;;;;;;;5053439;28;20025;-61
2022/10/02 00:22:03;;;;;;;21.17;4.03;;;;;;;;;;5041482;28;20021;-61
2022/10/02 00:24:38;;;;;;;23.37;4.47;;;;;;;;;;5051173;28;20025;-61
2022/10/02 00:27:15;;;;;;;24.55;4.15;;;;;;;;;;5053442;28;20041;-61
2022/10/02 00:29:52;;;;;;;23.55;4.93;;;;;;;;;;5053341;28;20047;-61
2022/10/02 00:32:19;;;;;;;28.50;5.38;;;;;;;;;;5044174;28;20474;-61
2022/10/02 00:34:45;;;;;;;25.40;4.20;;;;;;;;;;5042390;28;20079;-61
2022/10/02 00:37:19;;;;;;;27.88;6.15;;;;;;;;;;5040004;28;20477;-61
2022/10/02 00:40:00;;;;;;;23.48;5.38;;;;;;;;;;5053435;28;20032;-61
2022/10/02 00:42:56;;;;;;;30.58;5.38;;;;;;;;;;5052280;28;20481;-60
2022/10/02 00:45:22;;;;;;;30.15;5.47;;;;;;;;;;5051980;28;20049;-60
2022/10/02 00:47:48;;;;;;;28.83;4.63;;;;;;;;;;5049712;28;20029;-61
2022/10/02 00:50:17;;;;;;;24.42;3.90;;;;;;;;;;5044427;28;20029;-61
2022/10/02 00:52:52;;;;;;;16.60;3.95;;;;;;;;;;5034162;28;20033;-61
2022/10/02 00:55:27;;;;;;;25.38;4.45;;;;;;;;;;5051201;28;20039;-61
2022/10/02 00:57:59;;;;;;;21.73;5.13;;;;;;;;;;5052916;28;20029;-61
2022/10/02 01:00:25;;;;;;;30.77;4.38;;;;;;;;;;5046329;28;20024;-61
2022/10/02 01:02:54;;;;;;;17.45;4.22;;;;;;;;;;5039575;28;20025;-61
2022/10/02 01:05:20;;;;;;;23.50;4.57;;;;;;;;;;5046057;28;20510;-61
2022/10/02 01:07:49;;;;;;;19.95;4.28;;;;;;;;;;5040346;28;20072;-61
2022/10/02 01:10:15;;;;;;;20.52;4.28;;;;;;;;;;5027501;28;20484;-61
2022/10/02 01:12:42;;;;;;;22.90;4.18;;;;;;;;;;5052883;28;20033;-61
2022/10/02 01:15:17;;;;;;;19.35;3.85;;;;;;;;;;5053119;28;20033;-61
2022/10/02 01:17:44;;;;;;;19.85;3.63;;;;;;;;;;5048024;28;20029;-61
2022/10/02 01:20:20;;;;;;;18.30;3.30;;;;;;;;;;5051687;28;20017;-61
2022/10/02 01:22:52;;;;;;;18.90;4.03;;;;;;;;;;5051812;28;20100;-61
2022/10/02 01:25:18;;;;;;;13.38;2.88;;;;;;;;;;5051842;28;20658;-61
2022/10/02 01:27:45;;;;;;;19.88;3.45;;;;;;;;;;5039098;28;20080;-61
2022/10/02 01:30:13;;;;;;;14.85;3.47;;;;;;;;;;5034735;28;20123;-61
2022/10/02 01:32:42;;;;;;;21.10;3.60;;;;;;;;;;5032807;28;20512;-61
2022/10/02 01:35:08;;;;;;;15.25;3.67;;;;;;;;;;5039761;28;20018;-61
2022/10/02 01:37:36;;;;;;;14.00;3.30;;;;;;;;;;5033975;28;20536;-60
2022/10/02 01:40:06;;;;;;;12.23;2.70;;;;;;;;;;5032418;28;20026;-61
2022/10/02 01:42:33;;;;;;;12.10;2.53;;;;;;;;;;5033370;28;20040;-61
2022/10/02 01:44:59;;;;;;;15.35;3.10;;;;;;;;;;5030211;28;20040;-61
2022/10/02 01:47:29;;;;;;;17.95;3.15;;;;;;;;;;5031958;28;20025;-61
2022/10/02 01:50:01;;;;;;;24.00;3.67;;;;;;;;;;5033172;28;20463;-61
2022/10/02 01:52:46;;;;;;;13.97;2.87;;;;;;;;;;5032998;28;20497;-61
2022/10/02 01:55:22;;;;;;;15.80;2.75;;;;;;;;;;5021267;28;20032;-61
2022/10/02 01:57:57;;;;;;;19.88;3.60;;;;;;;;;;5032779;28;20112;-60
2022/10/02 02:00:24;;;;;;;19.00;3.78;;;;;;;;;;5032891;28;20035;-61
2022/10/02 02:02:53;;;;;;;16.92;2.70;;;;;;;;;;5033901;28;20025;-60
2022/10/02 02:05:19;;;;;;;18.88;3.30;;;;;;;;;;5045193;28;20052;-61
2022/10/02 02:07:49;;;;;;;14.60;3.33;;;;;;;;;;5042781;28;20036;-61
2022/10/02 02:10:33;;;;;;;14.25;2.97;;;;;;;;;;5048212;28;20128;-61
2022/10/02 02:13:23;;;;;;;10.57;2.97;;;;;;;;;;5039155;28;20040;-61
2022/10/02 02:15:54;;;;;;;17.30;2.80;;;;;;;;;;5051258;28;20052;-61
2022/10/02 02:18:28;;;;;;;11.07;2.83;;;;;;;;;;5051379;28;20025;-61
2022/10/02 02:20:57;;;;;;;16.70;3.17;;;;;;;;;;5046191;28;20029;-61
2022/10/02 02:23:26;;;;;;;21.15;3.80;;;;;;;;;;5049763;28;20043;-61
2022/10/02 02:25:54;;;;;;;13.13;3.58;;;;;;;;;;5051230;28;20036;-61
2022/10/02 02:28:21;;;;;;;12.68;3.30;;;;;;;;;;5039183;28;20122;-61
2022/10/02 02:30:48;;;;;;;19.33;4.43;;;;;;;;;;5044616;28;20021;-60
2022/10/02 02:33:21;;;;;;;15.13;3.58;;;;;;;;;;5039421;28;20029;-61
2022/10/02 02:35:50;;;;;;;17.70;3.60;;;;;;;;;;5044061;28;20038;-61
2022/10/02 02:38:27;;;;;;;20.33;3.92;;;;;;;;;;5031722;28;20017;-61
2022/10/02 02:40:56;;;;;;;17.85;4.13;;;;;;;;;;5032249;28;20033;-61
2022/10/02 02:43:25;;;;;;;18.42;4.43;;;;;;;;;;5022042;28;20381;-61
2022/10/02 02:45:54;;;;;;;20.08;4.38;;;;;;;;;;5031851;28;20083;-61
2022/10/02 02:48:24;;;;;;;19.15;4.30;;;;;;;;;;5031631;28;20104;-61
2022/10/02 02:50:52;;;;;;;24.55;4.85;;;;;;;;;;5032632;28;20064;-61
2022/10/02 02:53:24;;;;;;;24.38;5.35;;;;;;;;;;5031343;28;20025;-61
2022/10/02 02:56:00;;;;;;;28.17;4.32;;;;;;;;;;5032023;28;20057;-60
2022/10/02 02:58:29;;;;;;;32.15;4.85;;;;;;;;;;5032105;28;20037;-61
2022/10/02 03:00:56;;;;;;;33.67;5.70;;;;;;;;;;5026352;28;20108;-60
2022/10/02 03:03:22;;;;;;;26.05;4.72;;;;;;;;;;5032872;28;20030;-61
2022/10/02 03:05:49;;;;;;;30.35;4.90;;;;;;;;;;5032123;28;20037;-61
2022/10/02 03:08:24;;;;;;;31.88;5.15;;;;;;;;;;5032174;28;20060;-61
2022/10/02 03:10:56;;;;;;;31.05;5.05;;;;;;;;;;5032382;28;20029;-60
2022/10/02 03:13:22;;;;;;;22.23;5.03;;;;;;;;;;5032666;28;20937;-61
2022/10/02 03:15:57;;;;;;;34.60;5.70;;;;;;;;;;5032329;28;20033;-61
2022/10/02 03:18:26;;;;;;;22.50;4.75;;;;;;;;;;5032428;28;20029;-61
2022/10/02 03:21:03;;;;;;;28.95;4.70;;;;;;;;;;5032146;28;20386;-61
2022/10/02 03:23:35;;;;;;;30.15;5.40;;;;;;;;;;5030841;28;20037;-61
2022/10/02 03:26:16;;;;;;;31.87;5.90;;;;;;;;;;5032368;28;20037;-60
2022/10/02 03:28:50;;;;;;;21.20;4.82;;;;;;;;;;5032570;28;20481;-61
2022/10/02 03:31:18;;;;;;;28.42;5.40;;;;;;;;;;5035959;28;20473;-61
2022/10/02 03:33:45;;;;;;;32.10;6.63;;;;;;;;;;5035448;28;20029;-61
2022/10/02 03:36:13;;;;;;;24.33;4.45;;;;;;;;;;5036473;28;20028;-60
2022/10/02 03:38:40;;;;;;;22.23;5.47;;;;;;;;;;5046154;28;20116;-61
2022/10/02 03:41:06;;;;;;;20.35;4.22;;;;;;;;;;5040867;28;20025;-61
2022/10/02 03:43:32;;;;;;;26.15;5.78;;;;;;;;;;5055068;28;20025;-61
2022/10/02 03:45:58;;;;;;;22.63;4.47;;;;;;;;;;5054863;28;20484;-60
2022/10/02 03:48:24;;;;;;;23.88;5.60;;;;;;;;;;5042893;28;20029;-60
2022/10/02 03:50:51;;;;;;;21.77;4.00;;;;;;;;;;5033421;28;20120;-61
2022/10/02 03:53:22;;;;;;;26.40;3.75;;;;;;;;;;5035279;28;20095;-61
2022/10/02 03:55:51;;;;;;;21.40;3.70;;;;;;;;;;5034187;28;20017;-61
2022/10/02 03:58:18;;;;;;;17.42;4.38;;;;;;;;;;5035194;28;20026;-61
2022/10/02 04:00:58;;;;;;;30.52;4.93;;;;;;;;;;5033954;28;20084;-61
2022/10/02 04:03:30;;;;;;;23.65;3.95;;;;;;;;;;5041383;28;20030;-61
2022/10/02 04:05:56;;;;;;;21.40;4.37;;;;;;;;;;5042427;28;20083;-60
2022/10/02 04:08:29;;;;;;;12.43;2.83;;;;;;;;;;5038958;28;20721;-60
2022/10/02 04:11:02;;;;;;;11.23;3.28;;;;;;;;;;5045092;28;20037;-61
2022/10/02 04:13:48;;;;;;;17.67;4.03;;;;;;;;;;5039324;28;20087;-60
2022/10/02 04:16:14;;;;;;;15.10;4.47;;;;;;;;;;5048669;28;20068;-60
2022/10/02 04:18:51;;;;;;;27.98;4.03;;;;;;;;;;5054587;28;20035;-61
2022/10/02 04:21:23;;;;;;;19.63;3.80;;;;;;;;;;5045082;28;20032;-61
2022/10/02 04:23:52;;;;;;;15.20;3.53;;;;;;;;;;5054518;28;20503;-60
2022/10/02 04:26:24;;;;;;;26.13;5.03;;;;;;;;;;5051311;28;20064;-61
2022/10/02 04:29:10;;;;;;;27.73;4.68;;;;;;;;;;5034111;28;20420;-61
2022/10/02 04:31:36;;;;;;;27.15;4.68;;;;;;;;;;5028782;28;20036;-61
2022/10/02 04:34:02;;;;;;;20.02;3.83;;;;;;;;;;5052756;28;20037;-61
2022/10/02 04:36:38;;;;;;;23.65;4.55;;;;;;;;;;5041074;28;20487;-61
2022/10/02 04:39:04;;;;;;;26.20;5.00;;;;;;;;;;5035161;28;20057;-61
2022/10/02 04:41:36;;;;;;;29.60;4.65;;;;;;;;;;5054568;28;20043;-61
2022/10/02 04:44:08;;;;;;;24.45;4.15;;;;;;;;;;5044922;28;20037;-60
2022/10/02 04:46:49;;;;;;;29.13;5.65;;;;;;;;;;5054143;28;20044;-61
2022/10/02 04:49:34;;;;;;;21.17;4.47;;;;;;;;;;5050910;28;20182;-60
2022/10/02 04:52:03;;;;;;;17.83;3.92;;;;;;;;;;5049515;28;20108;-61
2022/10/02 04:54:48;;;;;;;20.55;3.58;;;;;;;;;;5054081;28;20646;-61
2022/10/02 04:57:23;;;;;;;20.52;3.40;;;;;;;;;;5052737;28;20468;-61
2022/10/02 05:00:05;;;;;;;15.57;3.25;;;;;;;;;;5043490;28;20051;-60
2022/10/02 05:02:51;;;;;;;21.00;3.60;;;;;;;;;;5052514;28;20037;-61
2022/10/02 05:05:26;;;;;;;20.27;3.63;;;;;;;;;;5031653;28;20052;-61
2022/10/02 05:07:58;;;;;;;12.63;2.67;;;;;;;;;;5032427;28;20018;-61
2022/10/02 05:10:27;;;;;;;15.90;2.20;;;;;;;;;;5030503;28;20030;-61
2022/10/02 05:13:12;;;;;;;13.68;3.50;;;;;;;;;;5024796;28;20628;-61
2022/10/02 05:15:46;;;;;;;15.30;2.70;;;;;;;;;;5030193;28;20032;-60
2022/10/02 05:18:45;;;;;;;11.85;2.90;;;;;;;;;;5027693;28;20026;-61
2022/10/02 05:21:26;;;;;;;16.00;3.40;;;;;;;;;;5029830;28;20116;-61
2022/10/02 05:23:55;;;;;;;11.30;3.40;;;;;;;;;;5024721;28;20041;-61
2022/10/02 05:26:24;;;;;;;17.95;3.03;;;;;;;;;;5026288;28;20041;-60
2022/10/02 05:28:56;;;;;;;8.63;2.22;;;;;;;;;;5019672;28;20021;-60
2022/10/02 05:31:31;;;;;;;5.05;2.20;;;;;;;;;;5034311;28;20467;-61
2022/10/02 05:34:03;;;;;;;10.38;2.40;;;;;;;;;;5023665;28;20117;-61
2022/10/02 05:36:31;;;;;;;11.40;2.00;;;;;;;;;;5021857;28;20025;-60
2022/10/02 05:39:02;;;;;;;8.82;1.85;;;;;;;;;;5028247;28;20843;-61
2022/10/02 05:41:31;;;;;;;10.55;1.98;;;;;;;;;;5029990;28;20022;-61
2022/10/02 05:44:03;;;;;;;5.47;1.88;;;;;;;;;;5019259;28;20050;-61
2022/10/02 05:46:53;;;;;;;19.90;2.53;;;;;;;;;;5014825;28;20030;-61
2022/10/02 05:49:29;;;;;;;11.23;2.63;;;;;;;;;;4951243;28;20054;-61
2022/10/02 05:51:58;;;;;;;14.65;2.60;;;;;;;;;;4948644;28;20047;-61
2022/10/02 05:54:33;;;;;;;16.73;2.88;;;;;;;;;;4943152;29;20039;-61
2022/10/02 05:57:15;;;;;;;15.55;2.83;;;;;;;;;;4954656;28;20039;-61
2022/10/02 05:59:54;;;;;;;15.57;3.38;;;;;;;;;;4951362;28;20040;-61
2022/10/02 06:02:33;;;;;;;19.58;3.85;;;;;;;;;;4945722;28;20059;-61
2022/10/02 06:05:04;;;;;;;13.32;3.50;;;;;;;;;;4955376;28;20034;-60
2022/10/02 06:07:31;;;;;;;19.40;3.38;;;;;;;;;;4955333;28;20062;-61
2022/10/02 06:10:01;;;;;;;25.27;4.60;;;;;;;;;;4953653;28;20047;-60
2022/10/02 06:12:33;;;;;;;19.65;3.40;;;;;;;;;;4955157;28;20388;-61
2022/10/02 06:15:00;;;;;;;25.55;4.40;;;;;;;;;;4943882;28;20042;-60
2022/10/02 06:17:29;;;;;;;22.90;4.95;;;;;;;;;;4952292;28;20035;-61
2022/10/02 06:19:57;;;;;;;20.13;4.32;;;;;;;;;;4967709;28;20039;-61
2022/10/02 06:22:35;;;;;;;32.17;5.70;;;;;;;;;;4968966;28;20018;-61
2022/10/02 06:25:01;;;;;;;40.40;5.43;;;;;;;;;;4959284;28;20055;-61
2022/10/02 06:27:30;;;;;;;23.77;3.97;;;;;;;;;;5031389;28;20090;-60
2022/10/02 06:29:59;;;;;;;26.10;4.68;;;;;;;;;;5036540;28;20029;-61
2022/10/02 06:32:26;;;;;;;24.45;4.65;;;;;;;;;;5030438;28;20485;-61
2022/10/02 06:34:52;;;;;;;30.67;5.35;;;;;;;;;;5031830;28;20037;-61
2022/10/02 06:37:28;;;;;;;30.58;5.55;;;;;;;;;;5026628;28;20018;-60
2022/10/02 06:40:03;;;;;;;36.15;6.22;;;;;;;;;;5026961;28;20025;-61
2022/10/02 06:42:34;;;;;;;24.67;5.80;;;;;;;;;;5029339;28;20041;-61
2022/10/02 06:45:05;;;;;;;36.08;5.18;;;;;;;;;;5025599;28;20113;-61
2022/10/02 06:47:40;;;;;;;23.63;4.13;;;;;;;;;;5024386;28;20515;-61
2022/10/02 06:50:09;;;;;;;28.05;4.20;;;;;;;;;;5021264;28;20033;-61
2022/10/02 06:52:44;;;;;;;23.85;4.13;;;;;;;;;;5025152;28;20382;-61
2022/10/02 06:55:13;;;;;;;24.98;3.88;;;;;;;;;;5031640;28;20112;-61
2022/10/02 06:57:48;;;;;;;26.58;4.10;;;;;;;;;;5029377;28;20055;-61
2022/10/02 07:00:17;;;;;;;22.10;3.75;;;;;;;;;;5030897;28;20470;-61
2022/10/02 07:02:46;;;;;;;30.10;4.65;;;;;;;;;;5038032;28;20489;-62
2022/10/02 07:05:37;;;;;;;29.17;6.38;;;;;;;;;;5034780;28;20029;-61
2022/10/02 07:08:15;;;;;;;29.20;5.03;;;;;;;;;;5037472;28;20045;-61
2022/10/02 07:10:45;;;;;;;28.60;5.80;;;;;;;;;;5035786;28;20137;-61
2022/10/02 07:13:31;;;;;;;31.27;6.18;;;;;;;;;;5033725;28;20040;-61
2022/10/02 07:16:07;;;;;;;26.67;4.53;;;;;;;;;;5034593;28;20040;-61
2022/10/02 07:18:42;;;;;;;19.15;5.03;;;;;;;;;;5041783;28;20041;-61
2022/10/02 07:21:15;;;;;;;23.98;4.50;;;;;;;;;;5037630;28;20048;-61
2022/10/02 07:23:51;;;;;;;24.55;4.68;;;;;;;;;;5037040;28;20043;-61
2022/10/02 07:26:25;;;;;;;32.42;5.00;;;;;;;;;;5035047;28;20025;-61
2022/10/02 07:28:54;;;;;;;23.77;5.10;;;;;;;;;;5037146;28;20041;-61
2022/10/02 07:31:27;;;;;;;24.58;5.03;;;;;;;;;;5037676;28;20055;-61
2022/10/02 07:33:53;;;;;;;;;;;;;;;;;;5034074;28;20437;-61
2022/10/02 07:36:34;;;;;;;34.33;6.20;;;;;;;;;;5043539;28;19963;-61
2022/10/02 07:39:01;;;;;;;31.75;4.13;;;;;;;;;;5034149;28;20037;-61
2022/10/02 07:41:41;;;;;;;28.98;5.25;;;;;;;;;;5033410;28;20026;-61
2022/10/02 07:44:33;;;;;;;25.73;5.25;;;;;;;;;;5035749;28;20052;-61
2022/10/02 07:47:08;;;;;;;26.53;4.80;;;;;;;;;;5034505;28;20088;-61
2022/10/02 07:49:37;;;;;;;16.45;3.90;;;;;;;;;;5037656;28;20508;-61
2022/10/02 07:52:18;;;;;;;26.45;4.65;;;;;;;;;;5037883;28;20396;-61
2022/10/02 07:54:51;;;;;;;22.88;4.82;;;;;;;;;;5037707;28;20028;-61
2022/10/02 07:57:23;;;;;;;23.17;4.20;;;;;;;;;;5044083;28;20029;-61
2022/10/02 07:59:51;;;;;;;23.20;4.43;;;;;;;;;;5039942;28;20071;-61
2022/10/02 08:02:34;;;;;;;28.02;4.68;;;;;;;;;;5034208;28;20026;-61
2022/10/02 08:05:02;;;;;;;31.15;4.72;;;;;;;;;;5036913;28;20397;-61
2022/10/02 08:07:28;;;;;;;34.15;5.53;;;;;;;;;;5031146;28;20136;-61
2022/10/02 08:09:56;;;;;;;21.05;4.90;;;;;;;;;;5033433;28;20049;-61
2022/10/02 08:12:28;;;;;;;28.90;4.50;;;;;;;;;;5030263;28;20041;-61
2022/10/02 08:14:55;;;;;;;25.98;6.22;;;;;;;;;;5026794;28;20522;-61
2022/10/02 08:17:35;;;;;;;21.17;4.57;;;;;;;;;;5033701;28;20017;-61
2022/10/02 08:20:04;;;;;;;31.55;6.13;;;;;;;;;;5036073;28;20025;-61
2022/10/02 08:22:37;;;;;;;22.33;4.68;;;;;;;;;;5032617;28;20033;-61
2022/10/02 08:25:26;;;;;;;27.17;4.55;;;;;;;;;;5032061;28;20032;-61
2022/10/02 08:27:59;;;;;;;26.05;5.22;;;;;;;;;;5030917;28;20045;-61
2022/10/02 08:30:25;;;;;;;;;;;;;;;;;;5033185;28;20032;-61
2022/10/02 08:32:53;;;;;;;25.27;4.82;;;;;;;;;;5026376;28;20373;-61
2022/10/02 08:35:19;;;;;;;23.85;4.63;;;;;;;;;;5030592;28;20088;-62
2022/10/02 08:38:11;;;;;;;19.52;3.92;;;;;;;;;;5025715;28;20017;-61
2022/10/02 08:41:07;;;;;;;23.58;3.88;;;;;;;;;;5028413;28;20111;-61
2022/10/02 08:43:48;;;;;;;19.33;4.22;;;;;;;;;;5030951;28;20037;-61
2022/10/02 08:46:31;;;;;;;27.02;5.03;;;;;;;;;;5028845;28;20155;-61
2022/10/02 08:49:03;;;;;;;15.23;4.10;;;;;;;;;;5030281;28;20108;-61
2022/10/02 08:51:54;;;;;;;24.13;4.40;;;;;;;;;;5034624;28;20064;-61
2022/10/02 08:54:23;;;;;;;22.33;4.68;;;;;;;;;;5032600;28;20034;-62
2022/10/02 08:57:12;;;;;;;20.27;4.28;;;;;;;;;;5030146;28;20500;-61
2022/10/02 08:59:56;;;;;;;21.65;4.50;;;;;;;;;;5029907;28;20132;-61
2022/10/02 09:02:37;;;;;;;23.63;4.15;;;;;;;;;;5030854;28;20040;-61
2022/10/02 09:05:06;;;;;;;20.38;3.70;;;;;;;;;;5027358;28;20115;-62
2022/10/02 09:07:38;;;;;;;22.27;3.83;;;;;;;;;;5029521;28;20036;-62
2022/10/02 09:10:13;;;;;;;24.88;4.57;;;;;;;;;;5024119;28;20041;-61
2022/10/02 09:13:03;;;;;;;21.80;3.72;;;;;;;;;;5021640;28;20063;-61
2022/10/02 09:15:32;;;;;;;23.80;4.03;;;;;;;;;;5026467;28;20044;-61
2022/10/02 09:18:01;;;;;;;22.02;4.13;;;;;;;;;;5029773;28;20047;-61
2022/10/02 09:20:39;;;;;;;25.63;5.57;;;;;;;;;;5036469;28;20021;-61
2022/10/02 09:23:11;;;;;;;22.73;3.70;;;;;;;;;;5029188;28;20025;-61
2022/10/02 09:25:42;;;;;;;28.10;4.97;;;;;;;;;;5028300;28;20029;-61
2022/10/02 09:28:38;;;;;;;18.65;3.40;;;;;;;;;;5019788;28;20278;-61
2022/10/02 09:31:06;;;;;;;20.10;4.20;;;;;;;;;;5029370;28;20041;-61
2022/10/02 09:33:51;;;;;;;22.30;3.38;;;;;;;;;;5028512;28;20736;-61
2022/10/02 09:36:29;;;;;;;30.60;5.10;;;;;;;;;;5030003;28;20056;-61
2022/10/02 09:39:04;;;;;;;29.10;4.28;;;;;;;;;;5029224;28;20061;-61
2022/10/02 09:41:48;;;;;;;23.67;4.47;;;;;;;;;;5030346;28;20050;-61
2022/10/02 09:44:33;;;;;;;17.08;4.55;;;;;;;;;;5034899;28;20040;-61
2022/10/02 09:47:00;;;;;;;28.00;4.22;;;;;;;;;;5024978;28;20045;-61
2022/10/02 09:49:44;;;;;;;32.22;4.85;;;;;;;;;;5030536;28;20029;-61
2022/10/02 09:52:24;;;;;;;19.45;3.95;;;;;;;;;;5029703;28;20067;-61
2022/10/02 09:54:50;;;;;;;23.20;4.05;;;;;;;;;;5031172;28;20064;-61
2022/10/02 09:57:30;;;;;;;24.52;4.20;;;;;;;;;;5033212;28;20029;-61
2022/10/02 10:00:15;;;;;;;18.98;3.30;;;;;;;;;;5030954;28;20925;-61
2022/10/02 10:02:41;;;;;;;12.55;3.63;;;;;;;;;;5026850;28;20034;-61
2022/10/02 10:05:25;;;;;;;24.58;4.60;;;;;;;;;;5031420;28;20036;-61
2022/10/02 10:07:54;;;;;;;24.05;4.10;;;;;;;;;;5020754;28;20041;-61
2022/10/02 10:10:33;;;;;;;21.08;4.95;;;;;;;;;;5015816;28;20049;-61
2022/10/02 10:12:59;;;;;;;23.55;4.80;;;;;;;;;;5019005;28;20033;-61
2022/10/02 10:15:28;;;;;;;23.33;4.13;;;;;;;;;;5024859;28;20103;-60
2022/10/02 10:18:14;;;;;;;20.58;3.47;;;;;;;;;;5017970;28;20029;-61
2022/10/02 10:20:40;;;;;;;27.15;5.32;;;;;;;;;;5018996;28;20033;-61
2022/10/02 10:23:09;;;;;;;22.25;4.53;;;;;;;;;;5023492;28;20032;-61
2022/10/02 10:25:35;;;;;;;18.50;3.70;;;;;;;;;;5019912;28;20045;-61
2022/10/02 10:28:16;;;;;;;27.35;5.05;;;;;;;;;;5015968;28;20037;-61
2022/10/02 10:30:45;;;;;;;19.65;3.60;;;;;;;;;;5018666;28;20030;-61
2022/10/02 10:33:33;;;;;;;21.70;4.07;;;;;;;;;;5016513;28;20034;-61
2022/10/02 10:39:14;;;;;;;17.27;3.20;;;;;;;;;;5017146;28;20022;-61
2022/10/02 10:42:04;;;;;;;10.30;2.70;;;;;;;;;;5020057;28;20061;-61
2022/10/02 10:44:48;;;;;;;14.00;3.33;;;;;;;;;;5026366;28;20036;-61
2022/10/02 10:47:19;;;;;;;12.30;3.08;;;;;;;;;;5018812;28;20040;-61
2022/10/02 10:49:54;;;;;;;13.45;3.35;;;;;;;;;;5017541;28;20116;-62
2022/10/02 10:52:38;;;;;;;15.77;4.05;;;;;;;;;;5015344;28;20084;-61
2022/10/02 10:55:11;;;;;;;15.15;3.70;;;;;;;;;;5016486;28;20473;-61
2022/10/02 10:57:44;;;;;;;12.93;3.05;;;;;;;;;;5020187;28;20034;-61
2022/10/02 11:00:14;;;;;;;11.13;2.58;;;;;;;;;;5017582;28;20030;-61
2022/10/02 11:02:53;;;;;;;18.35;3.45;;;;;;;;;;5016204;28;20049;-61
2022/10/02 11:05:23;;;;;;;11.80;2.58;;;;;;;;;;5018258;28;20567;-61
2022/10/02 11:07:52;;;;;;;9.90;2.30;;;;;;;;;;5018242;28;20032;-61
2022/10/02 11:10:27;;;;;;;13.32;2.45;;;;;;;;;;5022207;28;20042;-61
2022/10/02 11:12:54;;;;;;;13.13;2.95;;;;;;;;;;5022862;28;20525;-61
2022/10/02 11:15:38;;;;;;;18.65;3.28;;;;;;;;;;5031295;28;20113;-61
2022/10/02 11:18:05;;;;;;;9.65;2.55;;;;;;;;;;5026772;28;20060;-61
2022/10/02 11:20:50;;;;;;;8.82;2.58;;;;;;;;;;5023635;28;20368;-61
2022/10/02 11:23:34;;;;;;;9.00;2.22;;;;;;;;;;5021467;28;20037;-61
2022/10/02 11:26:13;;;;;;;7.57;2.70;;;;;;;;;;5026546;28;20021;-62
2022/10/02 11:28:42;;;;;;;14.60;2.30;;;;;;;;;;5029005;28;20060;-61
2022/10/02 11:31:24;;;;;;;9.25;2.10;;;;;;;;;;5040810;28;20109;-61
2022/10/02 11:34:10;;;;;;;14.73;2.55;;;;;;;;;;5035414;28;20028;-61
2022/10/02 11:36:42;;;;;;;10.20;2.08;;;;;;;;;;5030185;28;20030;-61
2022/10/02 11:39:18;;;;;;;7.07;2.27;;;;;;;;;;5031304;28;20390;-61
2022/10/02 11:41:45;;;;;;;8.88;2.10;;;;;;;;;;5029436;28;20022;-61
2022/10/02 11:44:30;;;;;;;7.68;1.70;;;;;;;;;;5034951;28;20440;-61
2022/10/02 11:46:59;;;;;;;8.23;1.90;;;;;;;;;;5025351;28;20017;-60
2022/10/02 11:49:34;;;;;;;13.93;2.88;;;;;;;;;;5028709;28;20030;-61
2022/10/02 11:52:00;;;;;;;5.90;1.95;;;;;;;;;;5037908;28;20029;-63
2022/10/02 11:54:36;;;;;;;11.65;1.77;;;;;;;;;;5032664;28;20021;-61
2022/10/02 11:57:13;;;;;;;9.20;1.73;;;;;;;;;;5029156;28;20464;-61
2022/10/02 11:59:42;;;;;;;8.40;1.48;;;;;;;;;;5025135;28;20029;-61
2022/10/02 12:02:11;;;;;;;10.88;2.05;;;;;;;;;;5029190;28;20036;-61
2022/10/02 12:04:56;;;;;;;9.40;2.00;;;;;;;;;;5023050;28;20026;-61
2022/10/02 12:07:40;;;;;;;5.35;2.03;;;;;;;;;;5022495;28;20112;-61
2022/10/02 12:10:26;;;;;;;8.40;1.60;;;;;;;;;;5025092;28;20516;-61
2022/10/02 12:12:53;;;;;;;9.35;1.80;;;;;;;;;;5024429;28;20108;-61
2022/10/02 12:15:28;;;;;;;9.88;2.20;;;;;;;;;;5021439;28;20026;-60
2022/10/02 12:18:13;;;;;;;5.68;1.30;;;;;;;;;;5018743;28;20029;-61
2022/10/02 12:29:29;;;;;;;7.93;1.40;;;;;;;;;;5029346;28;20036;-60
2022/10/02 12:32:07;;;;;;;7.10;1.35;;;;;;;;;;5023758;28;20025;-60
2022/10/02 12:34:51;;;;;;;10.38;1.38;;;;;;;;;;5024090;28;20037;-61
2022/10/02 12:37:24;;;;;;;5.15;1.10;;;;;;;;;;5026539;28;21295;-65
2022/10/02 12:40:09;;;;;;;7.05;1.23;;;;;;;;;;5027832;28;20417;-61
2022/10/02 12:42:51;;;;;;;8.60;1.25;;;;;;;;;;5025920;28;20041;-61
2022/10/02 12:45:27;;;;;;;7.55;2.00;;;;;;;;;;5033220;28;20489;-61
2022/10/02 12:48:01;;;;;;;8.70;1.58;;;;;;;;;;5026202;28;20030;-61
2022/10/02 12:50:39;;;;;;;18.23;2.65;;;;;;;;;;5024953;28;20052;-60
2022/10/02 12:53:05;;;;;;;17.38;3.35;;;;;;;;;;5020846;28;20033;-61
2022/10/02 12:55:31;;;;;;;19.60;3.47;;;;;;;;;;5024128;28;20146;-61
2022/10/02 12:57:57;;;;;;;21.65;3.30;;;;;;;;;;5030684;28;20040;-61
2022/10/02 13:00:42;;;;;;;19.23;4.10;;;;;;;;;;5028710;28;20029;-60
2022/10/02 13:03:11;;;;;;;27.50;4.47;;;;;;;;;;5032502;28;20505;-61
2022/10/02 13:05:46;;;;;;;28.52;4.60;;;;;;;;;;5030095;28;20068;-61
2022/10/02 13:08:18;;;;;;;24.15;4.70;;;;;;;;;;5019629;28;20088;-61
2022/10/02 13:11:03;;;;;;;34.00;4.90;;;;;;;;;;5020584;28;20116;-61
2022/10/02 13:13:47;;;;;;;31.38;4.30;;;;;;;;;;5029459;28;20030;-61
2022/10/02 13:16:24;;;;;;;28.65;5.03;;;;;;;;;;5025300;28;20052;-61
2022/10/02 13:18:51;;;;;;;32.78;5.18;;;;;;;;;;5030984;28;20108;-61
2022/10/02 13:21:27;;;;;;;30.85;4.40;;;;;;;;;;5028103;28;20026;-61
2022/10/02 13:23:53;;;;;;;24.55;4.53;;;;;;;;;;5032899;28;20025;-61
2022/10/02 13:26:32;;;;;;;30.50;5.10;;;;;;;;;;5025011;28;20040;-61
2022/10/02 13:29:12;;;;;;;32.10;5.53;;;;;;;;;;5028925;28;20033;-61
2022/10/02 13:32:07;;;;;;;33.40;4.45;;;;;;;;;;5021920;28;20030;-61
2022/10/02 13:34:48;;;;;;;25.05;4.88;;;;;;;;;;5028666;28;20532;-61
2022/10/02 13:37:16;;;;;;;29.67;5.75;;;;;;;;;;5028909;28;20632;-61
2022/10/02 13:39:51;;;;;;;21.58;4.70;;;;;;;;;;5040388;28;20052;-61
2022/10/02 13:42:35;;;;;;;27.23;4.93;;;;;;;;;;5030435;28;20036;-61
2022/10/02 13:45:17;;;;;;;30.30;4.30;;;;;;;;;;5024790;28;20045;-61
2022/10/02 13:48:04;;;;;;;33.58;4.85;;;;;;;;;;5025631;28;20041;-61
2022/10/02 13:50:36;;;;;;;21.42;4.72;;;;;;;;;;5026211;28;20092;-60
2022/10/02 13:53:20;;;;;;;22.52;4.78;;;;;;;;;;5015149;28;20053;-61
2022/10/02 13:55:55;;;;;;;24.50;5.60;;;;;;;;;;5024456;28;20025;-61
2022/10/02 13:58:24;;;;;;;23.20;5.30;;;;;;;;;;5016767;28;20037;-61
2022/10/02 14:00:59;;;;;;;27.08;5.07;;;;;;;;;;5025364;28;20059;-60
2022/10/02 14:03:37;;;;;;;30.88;4.50;;;;;;;;;;5027580;28;20497;-61
2022/10/02 14:06:19;;;;;;;26.52;4.70;;;;;;;;;;5024996;28;20085;-61
2022/10/02 14:08:51;;;;;;;35.47;5.75;;;;;;;;;;5026095;28;20112;-61
2022/10/02 14:11:35;;;;;;;28.02;5.15;;;;;;;;;;5029422;28;20350;-61
2022/10/02 14:14:02;;;;;;;28.52;5.75;;;;;;;;;;5027209;28;20402;-61
2022/10/02 14:16:52;;;;;;;34.05;5.35;;;;;;;;;;5030863;28;20041;-61
2022/10/02 14:19:18;;;;;;;24.73;4.50;;;;;;;;;;5028172;28;20550;-61
2022/10/02 14:21:44;;;;;;;22.92;4.53;;;;;;;;;;5029789;28;20375;-61
2022/10/02 14:24:13;;;;;;;25.15;3.78;;;;;;;;;;5031171;28;20033;-61
2022/10/02 14:26:39;;;;;;;19.00;3.33;;;;;;;;;;5032342;28;20040;-61
2022/10/02 14:29:20;;;;;;;16.60;3.17;;;;;;;;;;5030627;28;20033;-61
2022/10/02 14:31:59;;;;;;;20.05;3.40;;;;;;;;;;5026567;28;20041;-61
2022/10/02 14:34:31;;;;;;;24.42;3.67;;;;;;;;;;5030090;28;20036;-61
2022/10/02 14:37:16;;;;;;;28.97;4.30;;;;;;;;;;5029997;28;20120;-61
2022/10/02 14:39:44;;;;;;;21.08;3.10;;;;;;;;;;5033063;28;20025;-61
2022/10/02 14:42:43;;;;;;;16.45;3.33;;;;;;;;;;5028040;28;20060;-61
2022/10/02 14:45:27;;;;;;;15.38;2.92;;;;;;;;;;5029996;28;20124;-61
2022/10/02 14:48:03;;;;;;;16.27;3.25;;;;;;;;;;5031517;28;20396;-60
2022/10/02 14:50:41;;;;;;;12.77;3.65;;;;;;;;;;5029489;28;20061;-60
2022/10/02 14:53:26;;;;;;;12.45;2.47;;;;;;;;;;5026452;28;20037;-61
2022/10/02 14:56:12;;;;;;;8.00;1.63;;;;;;;;;;5037784;28;20036;-61
2022/10/02 14:58:38;;;;;;;6.43;1.38;;;;;;;;;;5029971;28;20045;-61
2022/10/02 15:01:10;;;;;;;9.10;1.52;;;;;;;;;;5037301;28;20066;-61
2022/10/02 15:03:47;;;;;;;12.38;1.42;;;;;;;;;;5039481;28;20480;-61
2022/10/02 15:06:26;;;;;;;3.40;0.95;;;;;;;;;;5030348;28;20045;-61
2022/10/02 15:08:55;;;;;;;4.65;1.13;;;;;;;;;;5045781;28;20064;-61
2022/10/02 15:11:34;;;;;;;8.45;1.15;;;;;;;;;;5030152;28;20082;-61
2022/10/02 15:14:09;;;;;;;6.40;1.27;;;;;;;;;;5027965;28;20044;-61
2022/10/02 15:19:32;;;;;;;8.13;1.23;;;;;;;;;;5027379;28;20018;-60
2022/10/02 15:22:06;;;;;;;8.05;1.13;;;;;;;;;;5028524;28;20030;-61
2022/10/02 15:24:32;;;;;;;4.88;1.13;;;;;;;;;;5030525;28;20079;-60
2022/10/02 15:27:03;;;;;;;4.60;1.20;;;;;;;;;;5030317;28;20026;-61